Time;durP1;ratioP1;P1;durP2;ratioP2;P2;SDS_P1;SDS_P2;PMS_P1;PMS_P2;Temp;Humidity;BMP_temperature;BMP_pressure;BME280_temperature;BME280_humidity;BME280_pressure;Samples;Min_cycle;Max_cycle;Signal;HPM_P1;HPM_P2
2022/03/27 00:00:44;;;;;;;1.98;1.15;;;-2.20;99.90;-2.70;96361.00;;;;4844246;29;92771;-65
2022/03/27 00:03:10;;;;;;;1.63;1.00;;;-2.20;99.90;-2.80;96345.00;;;;4836035;29;93430;-64
2022/03/27 00:05:39;;;;;;;1.40;0.98;;;-2.30;99.90;-2.90;96340.00;;;;4860843;29;93056;-64
2022/03/27 00:08:08;;;;;;;1.67;1.00;;;-2.30;99.90;-2.90;96356.00;;;;4859790;29;91781;-64
2022/03/27 00:11:23;;;;;;;1.25;0.80;;;-2.40;99.90;-3.00;96353.00;;;;4842556;29;92542;-63
2022/03/27 00:13:24;;;;;;;1.00;0.80;;;-2.50;99.90;-3.00;96332.00;;;;4857364;29;92996;-63
2022/03/27 00:15:50;;;;;;;2.38;0.70;;;-2.50;99.90;-3.00;96355.00;;;;4851591;29;93004;-64
2022/03/27 00:18:17;;;;;;;3.33;0.77;;;-2.50;99.90;-3.00;96339.00;;;;4857773;29;92763;-65
2022/03/27 00:20:43;;;;;;;1.23;0.77;;;-2.50;99.90;-3.00;96347.00;;;;4854784;29;92462;-67
2022/03/27 00:23:09;;;;;;;1.38;0.80;;;-2.50;99.90;-3.00;96348.00;;;;4853818;29;92304;-66
2022/03/27 00:25:36;;;;;;;1.10;0.80;;;-2.50;99.90;-3.00;96359.00;;;;4858057;29;93223;-63
2022/03/27 00:28:03;;;;;;;2.13;0.80;;;-2.40;99.90;-3.00;96346.00;;;;4861167;29;92085;-64
2022/03/27 00:30:30;;;;;;;1.40;0.70;;;-2.40;99.90;-3.00;96352.00;;;;4856559;29;93769;-64
2022/03/27 00:32:57;;;;;;;1.55;0.90;;;-2.40;99.90;-3.00;96349.00;;;;4844733;29;92268;-64
2022/03/27 00:35:23;;;;;;;2.53;0.70;;;-2.40;99.90;-3.00;96344.00;;;;4840850;29;92065;-65
2022/03/27 00:37:52;;;;;;;1.58;1.00;;;-2.40;99.90;-3.00;96351.00;;;;4857779;29;92069;-63
2022/03/27 00:40:19;;;;;;;1.65;0.80;;;-2.40;99.90;-2.90;96336.00;;;;4857703;29;94634;-66
2022/03/27 00:42:45;;;;;;;2.85;0.90;;;-2.40;99.90;-3.00;96363.00;;;;4847999;29;95042;-64
2022/03/27 00:45:11;;;;;;;1.70;0.85;;;-2.40;99.90;-3.00;96358.00;;;;4833353;29;92509;-64
2022/03/27 00:47:38;;;;;;;2.78;0.82;;;-2.40;99.90;-3.00;96371.00;;;;4861382;29;92485;-63
2022/03/27 00:50:05;;;;;;;1.77;0.70;;;-2.50;99.90;-3.10;96360.00;;;;4874332;28;93538;-64
2022/03/27 00:52:32;;;;;;;1.20;0.75;;;-2.50;99.90;-3.10;96360.00;;;;4864075;28;92199;-64
2022/03/27 00:54:58;;;;;;;1.45;0.60;;;-2.50;99.90;-3.10;96368.00;;;;4869651;28;91933;-66
2022/03/27 00:57:24;;;;;;;1.02;0.85;;;-2.60;99.90;-3.20;96364.00;;;;4878906;28;91794;-64
2022/03/27 00:59:51;;;;;;;1.55;0.70;;;-2.60;99.90;-3.20;96379.00;;;;4870445;28;93741;-64
2022/03/27 01:02:21;;;;;;;1.10;0.70;;;-2.70;99.90;-3.20;96364.00;;;;4877425;28;92919;-64
2022/03/27 01:04:47;;;;;;;2.60;0.90;;;-2.70;99.90;-3.20;96375.00;;;;4877549;28;93077;-64
2022/03/27 01:07:20;;;;;;;4.65;0.80;;;-2.70;99.90;-3.20;96379.00;;;;4870740;28;92387;-64
2022/03/27 01:09:47;;;;;;;2.03;1.05;;;-2.70;99.90;-3.20;96377.00;;;;4880467;28;93149;-64
2022/03/27 01:12:22;;;;;;;2.00;0.68;;;-2.70;99.90;-3.30;96382.00;;;;4877471;28;92734;-64
2022/03/27 01:14:50;;;;;;;2.40;1.27;;;-2.70;99.90;-3.30;96372.00;;;;4867894;28;92037;-65
2022/03/27 01:17:23;;;;;;;1.48;0.90;;;-2.80;99.90;-3.40;96383.00;;;;4877299;28;92257;-64
2022/03/27 01:19:55;;;;;;;3.45;0.85;;;-2.90;99.90;-3.30;96376.00;;;;4869485;28;93334;-66
2022/03/27 01:22:24;;;;;;;1.80;0.82;;;-2.80;99.90;-3.30;96381.00;;;;4871207;28;92648;-64
2022/03/27 01:24:52;;;;;;;1.55;1.00;;;-2.80;99.90;-3.40;96381.00;;;;4875595;28;92062;-64
2022/03/27 01:27:18;;;;;;;2.20;0.95;;;-2.80;99.90;-3.40;96389.00;;;;4864964;28;92351;-64
2022/03/27 01:29:45;;;;;;;2.63;0.80;;;-2.80;99.90;-3.40;96386.00;;;;4879649;28;93551;-64
2022/03/27 01:32:14;;;;;;;1.00;0.80;;;-2.80;99.90;-3.30;96398.00;;;;4860082;28;94896;-64
2022/03/27 01:34:44;;;;;;;1.15;0.80;;;-2.80;99.90;-3.40;96393.00;;;;4873360;28;92112;-64
2022/03/27 01:37:13;;;;;;;2.00;1.10;;;-2.80;99.90;-3.30;96386.00;;;;4841612;28;92435;-64
2022/03/27 01:39:40;;;;;;;1.52;0.88;;;-2.80;99.90;-3.30;96392.00;;;;4854564;28;95131;-64
2022/03/27 01:42:06;;;;;;;10.63;1.25;;;-2.80;99.90;-3.30;96392.00;;;;4874107;28;93378;-63
2022/03/27 01:44:33;;;;;;;11.93;1.05;;;-2.80;99.90;-3.30;96389.00;;;;4872773;28;92573;-61
2022/03/27 01:47:01;;;;;;;3.20;1.08;;;-2.80;99.90;-3.30;96388.00;;;;4878934;28;91707;-61
2022/03/27 01:49:27;;;;;;;1.77;0.93;;;-2.80;99.90;-3.30;96395.00;;;;4863691;28;93809;-61
2022/03/27 01:51:53;;;;;;;1.73;0.90;;;-2.80;99.90;-3.40;96402.00;;;;4852314;29;92854;-61
2022/03/27 01:54:22;;;;;;;1.10;1.00;;;-2.80;99.90;-3.40;96409.00;;;;4874710;28;92867;-61
2022/03/27 01:56:48;;;;;;;2.97;1.00;;;-2.80;99.90;-3.40;96413.00;;;;4876172;28;92488;-61
2022/03/27 01:59:15;;;;;;;2.60;0.95;;;-2.90;99.90;-3.40;96410.00;;;;4882291;28;93704;-61
2022/03/27 02:01:41;;;;;;;1.30;0.80;;;-2.80;99.90;-3.40;96412.00;;;;4876715;28;92478;-61
2022/03/27 02:04:08;;;;;;;1.65;1.08;;;-2.80;99.90;-3.40;96427.00;;;;4859975;28;92110;-62
2022/03/27 02:06:37;;;;;;;1.63;1.08;;;-2.80;99.90;-3.40;96417.00;;;;4861997;28;92040;-60
2022/03/27 02:09:04;;;;;;;2.05;0.93;;;-2.80;99.90;-3.40;96423.00;;;;4870071;28;93594;-62
2022/03/27 02:11:30;;;;;;;2.28;0.90;;;-2.80;99.90;-3.40;96416.00;;;;4846611;28;92442;-62
2022/03/27 02:13:56;;;;;;;2.10;1.00;;;-2.80;99.90;-3.40;96405.00;;;;4877456;28;92058;-62
2022/03/27 02:16:22;;;;;;;1.77;0.80;;;-2.80;99.90;-3.40;96425.00;;;;4874924;28;92077;-62
2022/03/27 02:18:50;;;;;;;3.30;1.10;;;-2.80;99.90;-3.40;96423.00;;;;4875920;28;94710;-62
2022/03/27 02:21:16;;;;;;;2.42;1.08;;;-2.80;99.90;-3.50;96420.00;;;;4874164;28;93049;-62
2022/03/27 02:23:42;;;;;;;1.85;1.05;;;-2.90;99.90;-3.50;96429.00;;;;4883699;28;92013;-62
2022/03/27 02:26:08;;;;;;;3.05;1.20;;;-3.00;99.90;-3.50;96441.00;;;;4883558;28;92035;-62
2022/03/27 02:28:35;;;;;;;2.10;1.00;;;-3.00;99.90;-3.60;96440.00;;;;4881157;28;93803;-62
2022/03/27 02:31:01;;;;;;;5.03;1.00;;;-3.10;99.90;-3.60;96431.00;;;;4866134;28;93567;-62
2022/03/27 02:33:29;;;;;;;2.55;0.90;;;-3.00;99.90;-3.60;96445.00;;;;4870549;28;92025;-61
2022/03/27 02:35:56;;;;;;;10.57;1.45;;;-3.10;99.90;-3.60;96443.00;;;;4871370;28;91762;-62
2022/03/27 02:38:22;;;;;;;6.78;1.20;;;-3.00;99.90;-3.60;96452.00;;;;4875493;28;92640;-62
2022/03/27 02:40:49;;;;;;;2.50;1.23;;;-3.00;99.90;-3.60;96448.00;;;;4869605;28;92203;-67
2022/03/27 02:43:15;;;;;;;2.25;0.98;;;-3.10;99.90;-3.60;96451.00;;;;4862149;28;93133;-67
2022/03/27 02:45:42;;;;;;;2.72;1.10;;;-3.10;99.90;-3.60;96454.00;;;;4878118;28;93578;-67
2022/03/27 02:48:09;;;;;;;3.42;1.17;;;-3.00;99.90;-3.70;96463.00;;;;4883496;28;92901;-67
2022/03/27 02:50:39;;;;;;;2.13;1.38;;;-3.10;99.90;-3.70;96488.00;;;;4879993;28;93672;-67
2022/03/27 02:53:05;;;;;;;16.95;1.30;;;-3.10;99.90;-3.70;96452.00;;;;4866847;28;92168;-67
2022/03/27 02:55:32;;;;;;;2.63;1.00;;;-3.10;99.90;-3.70;96458.00;;;;4872867;28;92443;-67
2022/03/27 02:57:59;;;;;;;2.17;1.10;;;-3.10;99.90;-3.70;96475.00;;;;4879588;28;92638;-67
2022/03/27 03:00:26;;;;;;;1.45;1.00;;;-3.10;99.90;-3.70;96479.00;;;;4855734;29;95070;-67
2022/03/27 03:02:53;;;;;;;2.45;1.02;;;-3.10;99.90;-3.70;96487.00;;;;4876164;28;92369;-67
2022/03/27 03:05:20;;;;;;;2.60;0.95;;;-3.10;99.90;-3.70;96501.00;;;;4867573;28;92080;-64
2022/03/27 03:07:46;;;;;;;1.92;0.88;;;-3.10;99.90;-3.70;96488.00;;;;4872751;28;93841;-64
2022/03/27 03:10:15;;;;;;;4.22;1.58;;;-3.20;99.90;-3.80;96492.00;;;;4869906;28;94775;-64
2022/03/27 03:12:42;;;;;;;1.67;1.13;;;-3.10;99.90;-3.80;96488.00;;;;4866826;28;93115;-65
2022/03/27 03:15:09;;;;;;;4.35;1.40;;;-3.20;99.90;-3.80;96492.00;;;;4874198;28;92263;-65
2022/03/27 03:17:36;;;;;;;2.88;1.17;;;-3.20;99.90;-3.80;96505.00;;;;4866760;28;93030;-64
2022/03/27 03:20:04;;;;;;;3.03;1.00;;;-3.20;99.90;-3.80;96506.00;;;;4870468;28;92428;-64
2022/03/27 03:22:31;;;;;;;1.88;1.15;;;-3.20;99.90;-3.80;96504.00;;;;4880192;28;92569;-64
2022/03/27 03:24:58;;;;;;;3.47;0.98;;;-3.20;99.90;-3.80;96527.00;;;;4883577;28;91342;-64
2022/03/27 03:27:24;;;;;;;4.28;1.30;;;-3.20;99.90;-4.00;96525.00;;;;4882531;28;92685;-64
2022/03/27 03:29:50;;;;;;;2.58;1.02;;;-3.30;99.90;-4.10;96547.00;;;;4855017;28;93467;-65
2022/03/27 03:32:16;;;;;;;2.58;0.90;;;-3.40;99.90;-4.10;96571.00;;;;4880723;28;92998;-64
2022/03/27 03:34:42;;;;;;;4.30;1.02;;;-3.40;99.90;-4.20;96535.00;;;;4866028;28;94108;-64
2022/03/27 03:37:09;;;;;;;6.47;0.80;;;-3.50;99.90;-4.10;96548.00;;;;4876515;28;93170;-64
2022/03/27 03:39:35;;;;;;;2.08;0.88;;;-3.40;99.90;-4.10;96561.00;;;;4874197;28;93341;-65
2022/03/27 03:42:01;;;;;;;0.98;0.60;;;-3.40;99.90;-4.10;96560.00;;;;4855637;29;92497;-66
2022/03/27 03:44:28;;;;;;;0.95;0.65;;;-3.50;99.90;-4.10;96588.00;;;;4874866;28;92877;-65
2022/03/27 03:46:54;;;;;;;2.38;0.80;;;-3.40;99.90;-4.10;96549.00;;;;4879800;28;92714;-65
2022/03/27 03:49:21;;;;;;;4.47;0.80;;;-3.40;99.90;-4.10;96558.00;;;;4882172;28;92062;-65
2022/03/27 03:51:47;;;;;;;3.55;0.82;;;-3.40;99.90;-4.10;96575.00;;;;4870765;28;92054;-65
2022/03/27 03:54:13;;;;;;;2.00;0.93;;;-3.40;99.90;-4.10;96582.00;;;;4872917;28;92397;-65
2022/03/27 03:56:39;;;;;;;1.83;0.60;;;-3.40;99.90;-4.10;96590.00;;;;4877499;28;93589;-65
2022/03/27 03:59:06;;;;;;;8.48;1.00;;;-3.40;99.90;-4.10;96567.00;;;;4882162;28;93673;-65
2022/03/27 04:01:32;;;;;;;1.73;0.70;;;-3.40;99.90;-4.00;96597.00;;;;4843891;29;92824;-65
2022/03/27 04:03:58;;;;;;;3.10;0.93;;;-3.30;99.90;-3.90;96579.00;;;;4873167;28;92015;-65
2022/03/27 04:06:24;;;;;;;1.67;0.70;;;-3.30;99.90;-3.90;96593.00;;;;4856707;28;93738;-65
2022/03/27 04:08:50;;;;;;;3.80;0.77;;;-3.20;99.90;-3.80;96579.00;;;;4875445;28;92376;-65
2022/03/27 04:11:17;;;;;;;2.78;1.00;;;-3.20;99.90;-3.70;96633.00;;;;4877865;28;91929;-65
2022/03/27 04:13:46;;;;;;;1.48;0.70;;;-3.00;99.90;-3.70;96635.00;;;;4876778;28;91819;-65
2022/03/27 04:16:13;;;;;;;3.28;0.70;;;-3.10;99.90;-3.70;96611.00;;;;4872947;28;92758;-65
2022/03/27 04:18:40;;;;;;;10.15;1.10;;;-3.10;99.90;-3.70;96639.00;;;;4875818;28;92301;-64
2022/03/27 04:21:07;;;;;;;3.25;0.70;;;-3.10;99.90;-3.90;96610.00;;;;4870058;28;93321;-64
2022/03/27 04:23:33;;;;;;;1.52;0.77;;;-3.30;99.90;-4.00;96651.00;;;;4881658;28;91901;-64
2022/03/27 04:26:00;;;;;;;4.70;0.80;;;-3.40;99.90;-4.00;96615.00;;;;4849642;28;95135;-64
2022/03/27 04:28:26;;;;;;;3.00;0.95;;;-3.40;99.90;-4.10;96634.00;;;;4864903;28;93773;-64
2022/03/27 04:30:52;;;;;;;1.35;0.63;;;-3.50;99.90;-4.20;96687.00;;;;4840377;29;92104;-65
2022/03/27 04:33:18;;;;;;;3.97;1.40;;;-3.50;99.90;-4.20;96663.00;;;;4876419;28;92421;-65
2022/03/27 04:35:45;;;;;;;4.13;1.15;;;-3.60;99.90;-4.20;96665.00;;;;4868861;28;92477;-64
2022/03/27 04:38:12;;;;;;;1.58;0.82;;;-3.70;99.90;-4.20;96658.00;;;;4876122;28;93178;-64
2022/03/27 04:40:38;;;;;;;10.20;1.02;;;-3.60;99.90;-4.30;96689.00;;;;4870960;28;92454;-64
2022/03/27 04:43:05;;;;;;;1.85;0.80;;;-3.60;99.90;-4.30;96706.00;;;;4878064;28;92303;-64
2022/03/27 04:45:32;;;;;;;4.35;0.90;;;-3.70;99.90;-4.20;96698.00;;;;4874568;28;93479;-64
2022/03/27 04:47:58;;;;;;;1.52;0.82;;;-3.60;99.90;-4.20;96693.00;;;;4863284;28;93427;-64
2022/03/27 04:50:24;;;;;;;3.03;1.00;;;-3.60;99.90;-4.20;96699.00;;;;4862374;28;92080;-65
2022/03/27 04:52:51;;;;;;;3.58;0.88;;;-3.60;99.90;-4.20;96743.00;;;;4830824;29;92059;-65
2022/03/27 04:55:41;;;;;;;2.08;0.73;;;-3.60;99.90;-4.20;96703.00;;;;4834396;29;92556;-65
2022/03/27 04:58:09;;;;;;;2.85;1.00;;;-3.60;99.90;-4.10;96690.00;;;;4844352;29;93674;-65
2022/03/27 05:00:36;;;;;;;2.35;0.98;;;-3.50;99.90;-4.00;96694.00;;;;4843270;29;92488;-65
2022/03/27 05:03:03;;;;;;;1.75;0.95;;;-3.40;99.90;-3.90;96713.00;;;;4835013;29;91287;-65
2022/03/27 05:05:30;;;;;;;11.30;1.25;;;-3.40;99.90;-4.00;96701.00;;;;4857648;29;93104;-65
2022/03/27 05:07:58;;;;;;;1.73;0.75;;;-3.50;99.90;-4.20;96713.00;;;;4855420;29;92432;-64
2022/03/27 05:10:25;;;;;;;3.10;1.20;;;-3.70;99.90;-4.30;96701.00;;;;4828904;29;92948;-65
2022/03/27 05:12:51;;;;;;;3.55;1.10;;;-3.70;99.90;-4.30;96724.00;;;;4861024;29;92108;-65
2022/03/27 05:15:18;;;;;;;2.03;0.80;;;-3.80;99.90;-4.40;96708.00;;;;4836001;29;93922;-65
2022/03/27 05:17:55;;;;;;;4.43;0.90;;;-3.80;99.90;-4.40;96760.00;;;;4841939;29;92061;-65
2022/03/27 05:20:23;;;;;;;1.27;0.75;;;-3.70;99.90;-4.40;96805.00;;;;4849089;29;92123;-65
2022/03/27 05:22:49;;;;;;;3.30;1.00;;;-3.70;99.90;-4.30;96756.00;;;;4860592;29;92334;-64
2022/03/27 05:25:16;;;;;;;1.95;0.80;;;-3.70;99.90;-4.20;96759.00;;;;4862450;29;93745;-65
2022/03/27 05:27:46;;;;;;;1.90;0.88;;;-3.60;99.90;-4.00;96756.00;;;;4848390;29;92322;-65
2022/03/27 05:30:16;;;;;;;3.15;0.88;;;-3.50;99.90;-3.90;96772.00;;;;4854134;29;92538;-66
2022/03/27 05:32:43;;;;;;;0.73;0.52;;;-3.30;99.90;-4.00;96765.00;;;;4838460;29;92165;-65
2022/03/27 05:35:09;;;;;;;1.83;0.70;;;-3.40;99.50;-4.10;96829.00;;;;4845539;29;93732;-65
2022/03/27 05:37:38;;;;;;;3.60;0.80;;;-3.50;99.20;-4.00;96799.00;;;;4859690;29;93310;-65
2022/03/27 05:40:09;;;;;;;4.18;0.90;;;-3.50;99.30;-4.20;96775.00;;;;4863019;29;92452;-66
2022/03/27 05:42:36;;;;;;;0.88;0.70;;;-3.50;99.20;-4.00;96803.00;;;;4860155;29;91980;-65
2022/03/27 05:45:07;;;;;;;1.70;0.80;;;-3.50;99.10;-3.90;96763.00;;;;4855888;29;92768;-65
2022/03/27 05:47:34;;;;;;;1.40;0.75;;;-3.40;99.00;-4.00;96787.00;;;;4863527;29;92679;-66
2022/03/27 05:50:00;;;;;;;1.13;0.65;;;-3.40;98.70;-4.00;96782.00;;;;4877696;28;92329;-66
2022/03/27 05:52:27;;;;;;;2.15;0.77;;;-3.40;99.20;-3.90;96771.00;;;;4881816;28;91363;-65
2022/03/27 05:54:53;;;;;;;4.97;1.27;;;-3.30;99.10;-3.70;96799.00;;;;4876001;28;92480;-65
2022/03/27 05:57:20;;;;;;;35.65;2.45;;;-3.20;99.60;-3.50;96790.00;;;;4882554;28;92564;-65
2022/03/27 05:59:47;;;;;;;2.15;0.88;;;-3.00;99.90;-3.60;96771.00;;;;4881619;28;93322;-65
2022/03/27 06:02:14;;;;;;;2.30;0.93;;;-3.10;99.90;-3.20;96825.00;;;;4874546;28;92070;-65
2022/03/27 06:04:41;;;;;;;1.88;0.90;;;-2.80;99.90;-3.50;96789.00;;;;4877555;28;91985;-65
2022/03/27 06:07:11;;;;;;;3.00;0.95;;;-3.10;99.90;-3.60;96817.00;;;;4879261;28;92630;-64
2022/03/27 06:09:37;;;;;;;5.30;1.10;;;-3.10;99.90;-3.60;96803.00;;;;4878856;28;91943;-65
2022/03/27 06:12:05;;;;;;;3.22;0.88;;;-3.10;99.90;-3.60;96787.00;;;;4881915;28;92926;-65
2022/03/27 06:14:32;;;;;;;3.42;1.08;;;-3.10;99.90;-3.70;96820.00;;;;4877741;28;93146;-65
2022/03/27 06:16:58;;;;;;;9.30;1.10;;;-3.20;99.90;-3.80;96842.00;;;;4877221;28;92324;-65
2022/03/27 06:19:26;;;;;;;2.92;1.05;;;-3.30;99.90;-4.00;96813.00;;;;4870407;28;92528;-65
2022/03/27 06:21:52;;;;;;;3.22;0.90;;;-3.50;99.90;-4.10;96829.00;;;;4883897;28;92108;-65
2022/03/27 06:24:18;;;;;;;2.25;0.80;;;-3.60;99.90;-4.20;96845.00;;;;4882642;28;93516;-66
2022/03/27 06:26:44;;;;;;;2.80;1.05;;;-3.60;99.90;-4.20;96880.00;;;;4883095;28;94447;-65
2022/03/27 06:29:10;;;;;;;2.42;1.20;;;-3.70;99.90;-4.20;96841.00;;;;4879928;28;92438;-64
2022/03/27 06:31:40;;;;;;;4.28;1.00;;;-3.70;99.90;-4.00;96846.00;;;;4876231;28;92927;-66
2022/03/27 06:34:07;;;;;;;2.55;1.27;;;-3.60;99.90;-4.20;96873.00;;;;4853763;28;93688;-66
2022/03/27 06:36:34;;;;;;;1.83;0.85;;;-3.70;99.90;-4.30;96876.00;;;;4881568;28;92383;-66
2022/03/27 06:39:03;;;;;;;5.18;1.23;;;-3.70;99.90;-4.30;96862.00;;;;4871033;28;92031;-66
2022/03/27 06:41:29;;;;;;;3.45;0.80;;;-3.80;99.90;-4.30;96865.00;;;;4876271;28;91332;-66
2022/03/27 06:43:55;;;;;;;4.30;1.10;;;-3.70;99.90;-4.30;96923.00;;;;4870995;28;93649;-65
2022/03/27 06:46:22;;;;;;;2.40;1.17;;;-3.80;99.90;-4.40;96880.00;;;;4872225;28;92272;-65
2022/03/27 06:48:49;;;;;;;4.55;1.00;;;-3.90;99.90;-4.50;96945.00;;;;4867415;28;93038;-66
2022/03/27 06:51:16;;;;;;;9.32;1.30;;;-3.90;99.90;-4.50;96900.00;;;;4854654;29;92066;-64
2022/03/27 06:53:45;;;;;;;4.43;1.08;;;-3.90;99.90;-4.40;96901.00;;;;4854992;29;93792;-65
2022/03/27 06:56:11;;;;;;;1.75;1.00;;;-3.80;99.90;-4.40;96921.00;;;;4853650;29;92717;-66
2022/03/27 06:58:37;;;;;;;6.88;1.13;;;-3.90;99.90;-4.50;96941.00;;;;4855302;29;92253;-65
2022/03/27 07:03:48;;;;;;;2.20;1.10;;;-4.00;99.90;-4.60;96963.00;;;;4847301;29;92571;-66
2022/03/27 07:06:16;;;;;;;3.20;1.23;;;-4.00;99.90;-4.50;96931.00;;;;4848078;29;93337;-65
2022/03/27 07:08:42;;;;;;;5.32;1.05;;;-3.90;99.90;-4.20;96946.00;;;;4855337;29;92774;-65
2022/03/27 07:11:09;;;;;;;4.70;1.40;;;-3.60;99.90;-4.00;96931.00;;;;4844042;29;93205;-65
2022/03/27 07:13:35;;;;;;;4.22;1.20;;;-3.50;99.90;-4.20;96957.00;;;;4861676;29;94750;-65
2022/03/27 07:16:02;;;;;;;5.13;1.63;;;-3.70;99.90;-4.30;96921.00;;;;4841897;29;94678;-65
2022/03/27 07:18:29;;;;;;;3.60;1.05;;;-3.80;99.90;-4.40;96964.00;;;;4844966;29;92056;-65
2022/03/27 07:20:55;;;;;;;2.33;1.05;;;-3.80;99.90;-4.10;96956.00;;;;4848923;29;92088;-63
2022/03/27 07:23:22;;;;;;;3.47;1.20;;;-3.60;99.90;-4.00;96958.00;;;;4846028;29;93820;-63
2022/03/27 07:25:53;;;;;;;3.47;1.20;;;-3.50;99.90;-4.10;96966.00;;;;4863205;29;93670;-63
2022/03/27 07:28:20;;;;;;;3.67;1.13;;;-3.60;99.90;-4.40;96961.00;;;;4863835;29;92500;-63
2022/03/27 07:30:47;;;;;;;6.68;1.20;;;-3.90;99.90;-4.50;96973.00;;;;4862310;29;91354;-63
2022/03/27 07:33:16;;;;;;;3.63;1.30;;;-4.00;99.90;-4.50;97013.00;;;;4863171;29;93679;-63
2022/03/27 07:35:42;;;;;;;10.15;1.30;;;-3.90;99.90;-4.40;97031.00;;;;4845516;29;94994;-62
2022/03/27 07:38:09;;;;;;;4.72;1.25;;;-3.80;99.90;-4.40;96966.00;;;;4846488;29;93270;-62
2022/03/27 07:40:35;;;;;;;7.53;1.20;;;-3.90;99.90;-4.50;97010.00;;;;4834144;29;92430;-63
2022/03/27 07:43:02;;;;;;;3.60;1.33;;;-3.90;99.90;-4.50;96999.00;;;;4860406;29;92632;-63
2022/03/27 07:45:31;;;;;;;1.73;0.90;;;-3.90;99.90;-4.50;97068.00;;;;4842361;29;92762;-61
2022/03/27 07:47:58;;;;;;;2.30;1.33;;;-3.90;99.40;-4.40;97014.00;;;;4859197;29;92786;-64
2022/03/27 07:50:27;;;;;;;3.33;1.25;;;-3.80;99.70;-4.40;97009.00;;;;4879121;28;92160;-62
2022/03/27 07:52:53;;;;;;;2.88;1.33;;;-3.90;99.40;-4.40;97027.00;;;;4860294;28;92661;-63
2022/03/27 07:55:20;;;;;;;2.10;1.00;;;-3.80;98.50;-4.30;97013.00;;;;4871546;28;92868;-63
2022/03/27 07:57:47;;;;;;;3.28;1.10;;;-3.70;98.40;-3.90;97004.00;;;;4863568;28;93086;-63
2022/03/27 08:00:16;;;;;;;3.53;1.20;;;-3.40;98.20;-3.90;97009.00;;;;4874034;28;92085;-62
2022/03/27 08:02:45;;;;;;;3.38;1.23;;;-3.40;97.60;-3.80;97022.00;;;;4881171;28;95166;-63
2022/03/27 08:05:12;;;;;;;3.08;1.30;;;-3.30;97.70;-3.90;96998.00;;;;4870179;28;92116;-63
2022/03/27 08:07:42;;;;;;;7.95;1.48;;;-3.40;97.00;-4.00;97053.00;;;;4871181;28;92050;-63
2022/03/27 08:10:09;;;;;;;6.78;1.27;;;-3.50;97.00;-4.20;97099.00;;;;4866806;28;92411;-63
2022/03/27 08:12:36;;;;;;;3.38;0.90;;;-3.60;96.90;-4.10;97042.00;;;;4878197;28;93813;-63
2022/03/27 08:15:04;;;;;;;6.07;1.45;;;-3.60;97.20;-3.90;97047.00;;;;4873259;28;92914;-63
2022/03/27 08:17:31;;;;;;;1.80;0.90;;;-3.40;97.30;-4.00;97034.00;;;;4880485;28;91945;-62
2022/03/27 08:19:57;;;;;;;2.50;0.80;;;-3.40;96.80;-4.10;97056.00;;;;4880803;28;92332;-63
2022/03/27 08:22:24;;;;;;;1.42;0.90;;;-3.50;96.00;-3.90;97024.00;;;;4880258;28;92631;-62
2022/03/27 08:24:51;;;;;;;2.72;0.93;;;-3.50;95.60;-4.00;97093.00;;;;4880522;28;93080;-62
2022/03/27 08:27:17;;;;;;;3.10;1.20;;;-3.50;96.00;-3.80;97048.00;;;;4880963;28;93071;-62
2022/03/27 08:29:43;;;;;;;6.15;1.60;;;-3.30;96.90;-3.50;97049.00;;;;4863426;28;92121;-62
2022/03/27 08:32:14;;;;;;;2.80;1.02;;;-3.10;96.60;-3.50;97063.00;;;;4879801;28;93669;-62
2022/03/27 08:34:44;;;;;;;3.88;1.52;;;-3.10;97.20;-3.80;97094.00;;;;4880282;28;93387;-62
2022/03/27 08:37:13;;;;;;;2.85;1.10;;;-3.30;98.00;-4.00;97066.00;;;;4879662;28;92040;-63
2022/03/27 08:39:41;;;;;;;2.33;1.13;;;-3.50;98.00;-4.30;97081.00;;;;4856909;28;93619;-63
2022/03/27 08:42:32;;;;;;;2.50;1.27;;;-3.70;99.00;-4.40;97075.00;;;;4879827;28;92630;-64
2022/03/27 08:44:58;;;;;;;4.25;1.58;;;-3.80;99.90;-4.40;97111.00;;;;4876914;28;91589;-62
2022/03/27 08:47:28;;;;;;;2.90;1.30;;;-3.80;99.90;-4.20;97089.00;;;;4880702;28;92477;-65
2022/03/27 08:50:02;;;;;;;1.90;1.20;;;-3.70;99.90;-4.00;97107.00;;;;4880390;28;92277;-63
2022/03/27 08:53:13;;;;;;;3.97;1.48;;;-3.50;99.90;-3.70;97074.00;;;;4854655;28;94766;-64
2022/03/27 08:56:00;;;;;;;4.00;1.58;;;-3.20;99.90;-3.70;97103.00;;;;4873059;28;94699;-63
2022/03/27 08:58:40;;;;;;;3.10;1.30;;;-3.30;99.90;-3.90;97096.00;;;;4857573;28;92357;-63
2022/03/27 09:01:08;;;;;;;10.23;1.85;;;-3.40;99.90;-3.90;97117.00;;;;4859400;28;92218;-63
2022/03/27 09:03:35;;;;;;;2.90;1.55;;;-3.40;99.90;-4.00;97108.00;;;;4877980;28;92136;-64
2022/03/27 09:06:01;;;;;;;18.95;2.45;;;-3.60;99.90;-4.10;97119.00;;;;4871589;28;92442;-64
2022/03/27 09:08:29;;;;;;;20.80;2.33;;;-3.70;99.90;-4.30;97118.00;;;;4871938;28;92286;-63
2022/03/27 09:10:56;;;;;;;6.72;1.80;;;-3.90;99.90;-4.40;97152.00;;;;4857681;28;93152;-63
2022/03/27 09:13:22;;;;;;;6.93;1.80;;;-4.00;99.90;-4.60;97154.00;;;;4876497;28;92969;-66
2022/03/27 09:16:07;;;;;;;6.90;2.03;;;-4.10;99.90;-4.70;97169.00;;;;4876655;28;92100;-66
2022/03/27 09:18:58;;;;;;;4.10;1.73;;;-4.10;99.90;-4.50;97145.00;;;;4862810;28;93058;-66
2022/03/27 09:21:29;;;;;;;5.80;2.20;;;-4.00;99.90;-4.20;97183.00;;;;4861081;28;92418;-66
2022/03/27 09:24:01;;;;;;;5.07;1.60;;;-3.70;99.90;-4.10;97162.00;;;;4868217;28;92406;-62
2022/03/27 09:26:31;;;;;;;4.70;1.77;;;-3.60;99.90;-3.90;97148.00;;;;4863308;28;94340;-63
2022/03/27 09:29:11;;;;;;;14.25;1.75;;;-3.40;99.90;-4.10;97163.00;;;;4862351;28;92518;-61
2022/03/27 09:31:39;;;;;;;6.13;1.80;;;-3.60;99.90;-3.90;97155.00;;;;4876226;28;92493;-64
2022/03/27 09:34:07;;;;;;;3.10;1.55;;;-3.40;99.90;-4.00;97192.00;;;;4880609;28;93081;-67
2022/03/27 09:36:42;;;;;;;8.35;1.98;;;-3.50;99.90;-4.10;97188.00;;;;4847537;28;95003;-66
2022/03/27 09:39:22;;;;;;;5.82;1.75;;;-3.60;99.90;-4.50;97183.00;;;;4877000;28;91920;-65
2022/03/27 09:41:55;;;;;;;8.20;1.98;;;-4.00;99.90;-4.40;97185.00;;;;4869948;28;92122;-65
2022/03/27 09:44:25;;;;;;;3.67;1.58;;;-4.00;99.90;-4.30;97202.00;;;;4874835;28;94830;-66
2022/03/27 09:46:59;;;;;;;2.17;1.10;;;-3.80;99.90;-4.30;97266.00;;;;4858860;28;93352;-65
2022/03/27 09:49:34;;;;;;;3.50;1.17;;;-3.70;99.90;-4.00;97177.00;;;;4854182;29;92869;-66
2022/03/27 09:52:08;;;;;;;2.33;1.27;;;-3.50;99.90;-3.90;97196.00;;;;4858102;29;92516;-67
2022/03/27 09:55:07;;;;;;;36.03;3.03;;;-3.40;99.90;-4.20;97231.00;;;;4823169;29;92680;-66
2022/03/27 09:57:42;;;;;;;8.45;1.80;;;-3.70;99.90;-4.40;97227.00;;;;4855440;29;94119;-66
2022/03/27 10:00:13;;;;;;;4.45;1.90;;;-3.80;99.90;-4.40;97195.00;;;;4842567;29;92098;-66
2022/03/27 10:02:41;;;;;;;;;;;-3.80;99.90;-4.00;97225.00;;;;4858442;29;91579;-65
2022/03/27 10:05:13;;;;;;;7.35;2.15;;;-3.60;99.90;-4.00;97203.00;;;;4855015;29;92736;-66
2022/03/27 10:07:45;;;;;;;5.30;1.90;;;-3.50;99.90;-3.50;97199.00;;;;4849586;29;92302;-66
2022/03/27 10:10:18;;;;;;;4.75;1.95;;;-3.00;99.90;-3.60;97232.00;;;;4856995;29;93380;-66
2022/03/27 10:12:48;;;;;;;3.95;1.60;;;-3.20;99.90;-4.10;97256.00;;;;4839824;29;92281;-68
2022/03/27 10:15:24;;;;;;;4.32;1.92;;;-3.50;99.90;-4.30;97220.00;;;;4852411;29;92620;-65
2022/03/27 10:18:00;;;;;;;6.78;2.22;;;-3.80;99.90;-4.70;97225.00;;;;4861701;29;92872;-66
2022/03/27 10:20:34;;;;;;;6.35;1.85;;;-4.10;99.90;-4.80;97293.00;;;;4852293;29;92519;-65
2022/03/27 10:23:18;;;;;;;5.75;1.98;;;-4.10;99.90;-4.60;97261.00;;;;4824872;29;92623;-65
2022/03/27 10:25:52;;;;;;;5.50;1.63;;;-3.90;99.90;-4.00;97255.00;;;;4845600;29;92800;-66
2022/03/27 10:28:20;;;;;;;5.28;1.60;;;-3.40;99.90;-3.90;97311.00;;;;4861576;29;93423;-66
2022/03/27 10:30:50;;;;;;;4.38;1.83;;;-3.30;99.90;-3.80;97270.00;;;;4843950;29;92393;-66
2022/03/27 10:33:19;;;;;;;6.05;1.50;;;-3.10;99.90;-3.50;97262.00;;;;4857213;29;92151;-66
2022/03/27 10:36:19;;;;;;;14.73;1.10;;;-2.90;99.90;-3.80;97260.00;;;;4845238;29;94242;-64
2022/03/27 10:39:14;;;;;;;3.33;1.27;;;-3.20;99.90;-3.90;97257.00;;;;4835801;29;94423;-66
2022/03/27 10:42:14;;;;;;;2.75;1.05;;;-3.30;99.90;-3.60;97269.00;;;;4837139;29;93151;-66
2022/03/27 10:45:17;;;;;;;4.40;1.50;;;-3.00;99.90;-3.90;97301.00;;;;4853447;29;93256;-66
2022/03/27 10:47:43;;;;;;;2.92;1.40;;;-3.30;99.90;-4.10;97283.00;;;;4835416;29;92592;-66
2022/03/27 10:50:09;;;;;;;3.28;1.25;;;-3.50;99.90;-4.10;97305.00;;;;4855321;29;92671;-62
2022/03/27 10:52:53;;;;;;;9.38;1.40;;;-3.50;99.90;-4.10;97282.00;;;;4846272;29;92315;-66
2022/03/27 10:55:19;;;;;;;4.43;1.30;;;-3.60;99.90;-4.00;97293.00;;;;4856714;29;91732;-66
2022/03/27 10:57:51;;;;;;;5.28;1.42;;;-3.40;99.90;-3.70;97286.00;;;;4860103;29;92887;-66
2022/03/27 11:00:39;;;;;;;2.92;1.30;;;-3.10;99.90;-3.80;97315.00;;;;4838106;29;92445;-67
2022/03/27 11:03:05;;;;;;;4.32;1.42;;;-3.30;99.90;-3.60;97361.00;;;;4855324;29;93312;-66
2022/03/27 11:05:31;;;;;;;16.42;1.70;;;-3.10;99.90;-3.50;97341.00;;;;4854299;29;92155;-66